createdAt,value
2019-03-18T07:13:44.149Z,99937.27
2019-03-18T07:16:13.163Z,99946.98
2019-03-18T07:18:42.266Z,99956.34
2019-03-18T07:21:11.276Z,99957.16
2019-03-18T07:23:40.327Z,99956.58
2019-03-18T07:26:09.401Z,99961.16
2019-03-18T07:28:38.410Z,99967.72
2019-03-18T07:31:07.457Z,99961.80
2019-03-18T07:33:36.490Z,99956.31
2019-03-18T07:36:05.515Z,99968.48
2019-03-18T07:38:34.526Z,99963.89
2019-03-18T07:41:03.547Z,99975.89
2019-03-18T07:43:32.542Z,99963.20
2019-03-18T07:46:01.564Z,99962.06
2019-03-18T07:48:31.585Z,99960.63
2019-03-18T07:51:01.770Z,99969.44
2019-03-18T07:53:30.865Z,99969.08
2019-03-18T07:56:09.207Z,99971.08
2019-03-18T07:58:30.639Z,99979.92
2019-03-18T08:00:59.842Z,99978.98
2019-03-18T08:03:28.962Z,99983.40
2019-03-18T08:05:57.975Z,99974.68
2019-03-18T08:08:27.195Z,99969.20
2019-03-18T08:10:56.260Z,99976.84
2019-03-18T08:13:25.307Z,99982.41
2019-03-18T08:15:54.350Z,99977.13
2019-03-18T08:18:23.378Z,99969.38
2019-03-18T08:20:52.391Z,99982.82
2019-03-18T08:23:21.412Z,99977.45
2019-03-18T08:25:50.439Z,99988.67
2019-03-18T08:28:19.460Z,99985.76
2019-03-18T08:30:48.485Z,99980.20
2019-03-18T08:33:17.847Z,99981.27
2019-03-18T08:35:46.859Z,99977.80
2019-03-18T08:38:15.879Z,99983.17
2019-03-18T08:40:44.915Z,99980.41
2019-03-18T08:43:13.926Z,99987.13
2019-03-18T08:45:42.987Z,99973.50
2019-03-18T08:48:12.001Z,99972.61
2019-03-18T08:50:41.064Z,99985.95
2019-03-18T08:53:10.098Z,99990.92
2019-03-18T08:55:39.111Z,99974.12
2019-03-18T08:58:09.844Z,99972.50
2019-03-18T09:00:40.974Z,99985.36
2019-03-18T09:03:09.999Z,99989.75
2019-03-18T09:05:39.015Z,99987.73
2019-03-18T09:08:08.058Z,100000.80
2019-03-18T09:10:37.075Z,100010.73
2019-03-18T09:13:06.091Z,100009.52
2019-03-18T09:15:35.122Z,100004.70
2019-03-18T09:18:04.138Z,100008.33
2019-03-18T09:20:34.162Z,100011.41
2019-03-18T09:23:03.180Z,100014.76
2019-03-18T09:25:32.223Z,100019.92
2019-03-18T09:28:01.288Z,100027.89
2019-03-18T09:30:30.309Z,100027.38
2019-03-18T09:32:59.352Z,100033.06
2019-03-18T09:35:28.412Z,100036.90
2019-03-18T09:37:57.494Z,100043.61
2019-03-18T09:40:29.171Z,100054.05
2019-03-18T09:42:57.323Z,100043.28
2019-03-18T09:45:26.386Z,100044.34
2019-03-18T09:47:56.341Z,100038.22
2019-03-18T09:50:25.520Z,100035.53
2019-03-18T09:52:54.584Z,100052.77
2019-03-18T09:55:23.659Z,100058.95
2019-03-18T09:57:52.781Z,100063.84
2019-03-18T10:00:22.313Z,100063.84
2019-03-18T10:02:51.359Z,100063.84
2019-03-18T10:05:20.390Z,100065.46
2019-03-18T10:07:49.413Z,100059.34
2019-03-18T10:10:18.447Z,100074.44
2019-03-18T10:12:47.505Z,100076.07
2019-03-18T10:15:18.731Z,100072.20
2019-03-18T10:17:47.783Z,100077.28
2019-03-18T10:20:16.802Z,100066.89
2019-03-18T10:22:45.819Z,100060.50
2019-03-18T10:25:14.838Z,100063.08
2019-03-18T10:27:43.859Z,100067.50
2019-03-18T10:30:16.763Z,100062.45
2019-03-18T10:32:45.774Z,100062.81
2019-03-18T10:35:15.398Z,100066.55
2019-03-18T10:37:44.426Z,100067.68
2019-03-18T10:40:14.559Z,100072.52
2019-03-18T10:42:43.651Z,100071.64
2019-03-18T10:45:15.972Z,100074.47
2019-03-18T10:47:45.001Z,100071.58
2019-03-18T10:50:18.886Z,100075.09
2019-03-18T10:52:47.991Z,100063.50
2019-03-18T10:55:17.053Z,100070.74
2019-03-18T10:57:46.150Z,100070.74
2019-03-18T11:00:16.995Z,100070.56
2019-03-18T11:02:46.018Z,100077.73
2019-03-18T11:05:15.251Z,100071.77
2019-03-18T11:07:44.306Z,100087.98
2019-03-18T11:10:23.020Z,100088.17
2019-03-18T11:12:49.497Z,100094.22
2019-03-18T11:15:20.228Z,100088.24
2019-03-18T11:17:49.270Z,100104.80
2019-03-18T11:20:18.496Z,100106.72
2019-03-18T11:22:47.549Z,100107.73
2019-03-18T11:25:19.394Z,100086.22
2019-03-18T11:27:48.451Z,100094.80
2019-03-18T11:30:21.119Z,100103.24
2019-03-18T11:32:50.149Z,100108.20
2019-03-18T11:35:19.191Z,100101.21
2019-03-18T11:37:48.223Z,100100.16
2019-03-18T11:40:19.062Z,100096.14
2019-03-18T11:42:48.091Z,100092.30
2019-03-18T11:45:17.792Z,100080.71
2019-03-18T11:47:46.840Z,100084.27
2019-03-18T11:50:19.679Z,100083.97
2019-03-18T11:52:48.741Z,100072.56
2019-03-18T11:55:23.878Z,100072.16
2019-03-18T11:57:52.956Z,100071.52
2019-03-18T12:00:23.726Z,100065.36
2019-03-18T12:02:52.764Z,100065.07
2019-03-18T12:05:31.439Z,100063.05
2019-03-18T12:08:00.503Z,100064.16
2019-03-18T12:10:29.572Z,100066.05
2019-03-18T12:12:58.642Z,100066.38
2019-03-18T12:15:36.398Z,100071.73
2019-03-18T12:17:59.337Z,100068.00
2019-03-18T12:20:28.351Z,100072.02
2019-03-18T12:22:57.374Z,100067.61
2019-03-18T12:25:26.443Z,100069.45
2019-03-18T12:27:55.586Z,100061.56
2019-03-18T12:30:26.368Z,100064.81
2019-03-18T12:32:55.419Z,100060.40
2019-03-18T12:35:24.623Z,100058.11
2019-03-18T12:37:55.371Z,100055.04
2019-03-18T12:40:24.392Z,100061.34
2019-03-18T12:42:53.453Z,100069.48
2019-03-18T12:45:24.778Z,100068.69
2019-03-18T12:47:53.810Z,100069.73
2019-03-18T12:50:39.173Z,100075.64
2019-03-18T12:52:55.256Z,100085.91
2019-03-18T12:55:24.404Z,100070.02
2019-03-18T12:57:53.470Z,100091.22
2019-03-18T13:00:28.978Z,100100.37
2019-03-18T13:02:58.004Z,100104.78
2019-03-18T13:05:27.092Z,100098.95
2019-03-18T13:08:00.572Z,100097.16
2019-03-18T13:10:26.861Z,100095.23
2019-03-18T13:12:58.496Z,100100.66
2019-03-18T13:15:27.517Z,100092.91
2019-03-18T13:17:56.537Z,100094.39
2019-03-18T13:20:25.573Z,100099.74
2019-03-18T13:22:54.610Z,100102.13
2019-03-18T13:25:23.632Z,100102.77
2019-03-18T13:27:52.668Z,100106.45
2019-03-18T13:30:24.173Z,100109.23
2019-03-18T13:32:53.530Z,100107.97
2019-03-18T13:35:22.555Z,100110.47
2019-03-18T13:37:51.583Z,100109.70
2019-03-18T13:40:20.841Z,100104.82
2019-03-18T13:42:49.921Z,100103.08
2019-03-18T13:45:25.032Z,100096.31
2019-03-18T13:47:54.051Z,100104.82
2019-03-18T13:50:23.451Z,100111.91
2019-03-18T13:52:52.494Z,100109.77
2019-03-18T13:55:21.506Z,100110.64
2019-03-18T13:57:50.546Z,100108.66
2019-03-18T14:00:23.304Z,100116.56
2019-03-18T14:02:52.406Z,100113.55
2019-03-18T14:05:21.511Z,100121.69
2019-03-18T14:08:00.258Z,100122.52
2019-03-18T14:10:24.879Z,100122.39
2019-03-18T14:12:53.913Z,100123.57
2019-03-18T14:15:26.167Z,100122.70
2019-03-18T14:17:55.186Z,100118.79
2019-03-18T14:20:31.534Z,100115.07
2019-03-18T14:23:00.663Z,100126.82
2019-03-18T14:25:29.677Z,100128.69
2019-03-18T14:27:58.729Z,100136.26
2019-03-18T14:30:27.789Z,100130.27
2019-03-18T14:32:56.809Z,100133.34
2019-03-18T14:35:25.851Z,100133.75
2019-03-18T14:37:54.901Z,100143.59
2019-03-18T14:40:26.257Z,100141.55
2019-03-18T14:42:55.291Z,100140.88
2019-03-18T14:45:24.854Z,100142.45
2019-03-18T14:47:53.874Z,100134.35
2019-03-18T14:50:22.923Z,100138.91
2019-03-18T14:52:51.943Z,100136.93
2019-03-18T14:55:20.964Z,100140.44
2019-03-18T14:57:50.003Z,100138.53
2019-03-18T15:00:28.401Z,100124.09
2019-03-18T15:02:57.433Z,100137.80
2019-03-18T15:05:26.743Z,100146.28
2019-03-18T15:07:55.801Z,100147.67
2019-03-18T15:10:27.282Z,100135.77
2019-03-18T15:12:56.314Z,100151.50
2019-03-18T15:15:25.394Z,100157.08
2019-03-18T15:17:54.455Z,100159.11
2019-03-18T15:20:28.404Z,100157.59
2019-03-18T15:22:57.430Z,100150.66
2019-03-18T15:25:35.196Z,100163.33
2019-03-18T15:28:04.247Z,100161.81
2019-03-18T15:30:33.311Z,100160.70
2019-03-18T15:33:02.391Z,100165.52
2019-03-18T15:35:31.451Z,100177.47
2019-03-18T15:38:00.625Z,100178.34
2019-03-18T15:40:30.305Z,100186.38
2019-03-18T15:42:59.386Z,100193.88
2019-03-18T15:45:28.423Z,100195.69
2019-03-18T15:47:57.487Z,100206.34
2019-03-18T15:50:31.023Z,100202.87
2019-03-18T15:53:00.069Z,100198.55
2019-03-18T15:55:29.155Z,100202.58
2019-03-18T15:57:58.206Z,100214.70
2019-03-18T16:00:29.595Z,100224.09
2019-03-18T16:02:58.660Z,100227.34
2019-03-18T16:05:27.719Z,100230.97
2019-03-18T16:07:56.802Z,100232.78
2019-03-18T16:10:25.855Z,100230.09
2019-03-18T16:12:54.955Z,100232.38
2019-03-18T16:15:23.991Z,100229.70
2019-03-18T16:17:53.986Z,100232.85
2019-03-18T16:20:28.013Z,100238.21
2019-03-18T16:22:57.036Z,100239.95
2019-03-18T16:25:26.065Z,100245.71
2019-03-18T16:27:55.099Z,100260.53
2019-03-18T16:30:25.845Z,100259.66
2019-03-18T16:32:54.815Z,100267.33
2019-03-18T16:35:23.836Z,100273.23
2019-03-18T16:37:52.858Z,100274.74
2019-03-18T16:40:25.405Z,100275.68
2019-03-18T16:42:54.515Z,100284.36
2019-03-18T16:45:23.545Z,100286.58
2019-03-18T16:47:52.588Z,100290.12
2019-03-18T16:50:27.005Z,100290.19
2019-03-18T16:52:56.024Z,100289.79
2019-03-18T16:55:25.057Z,100288.45
2019-03-18T16:57:54.080Z,100295.16
2019-03-18T17:00:25.128Z,100298.41
2019-03-18T17:02:54.159Z,100300.69
2019-03-18T17:05:23.192Z,100301.72
2019-03-18T17:07:54.254Z,100294.16
2019-03-18T17:10:22.989Z,100294.16
2019-03-18T17:12:52.011Z,100294.63
2019-03-18T17:15:22.254Z,100300.52
2019-03-18T17:17:51.279Z,100307.22
2019-03-18T17:20:20.295Z,100310.87
2019-03-18T17:22:50.414Z,100319.84
2019-03-18T17:25:34.445Z,100319.91
2019-03-18T17:28:05.269Z,100325.27
2019-03-18T17:30:34.298Z,100327.95
2019-03-18T17:33:03.348Z,100330.16
2019-03-18T17:35:32.375Z,100325.84
2019-03-18T17:38:01.397Z,100329.45
2019-03-18T17:40:30.429Z,100333.17
2019-03-18T17:42:59.486Z,100332.30
2019-03-18T17:45:28.479Z,100330.09
2019-03-18T17:47:57.499Z,100339.94
2019-03-18T17:50:31.692Z,100341.68
2019-03-18T17:53:03.872Z,100339.53
2019-03-18T17:55:31.539Z,100340.97
2019-03-18T17:58:00.570Z,100349.08
2019-03-18T18:00:40.028Z,100352.69
2019-03-18T18:03:09.059Z,100353.16
2019-03-18T18:05:38.147Z,100355.13
2019-03-18T18:08:07.169Z,100358.28
2019-03-18T18:10:36.199Z,100359.62
2019-03-18T18:13:05.223Z,100366.66
2019-03-18T18:15:34.252Z,100361.30
2019-03-18T18:18:03.279Z,100366.19
2019-03-18T18:20:32.306Z,100364.45
2019-03-18T18:23:13.244Z,100367.99
2019-03-18T18:25:32.081Z,100375.22
2019-03-18T18:28:01.109Z,100372.24
2019-03-18T18:30:30.132Z,100372.70
2019-03-18T18:32:59.165Z,100368.75
2019-03-18T18:35:28.231Z,100370.19
2019-03-18T18:37:57.295Z,100379.09
2019-03-18T18:40:30.176Z,100378.12
2019-03-18T18:42:59.190Z,100378.63
2019-03-18T18:45:28.214Z,100378.76
2019-03-18T18:47:57.231Z,100376.08
2019-03-18T18:50:26.266Z,100376.08
2019-03-18T18:52:55.292Z,100378.86
2019-03-18T18:55:24.353Z,100378.39
2019-03-18T18:57:53.371Z,100382.00
2019-03-18T19:00:24.769Z,100380.66
2019-03-18T19:02:53.798Z,100377.17
2019-03-18T19:05:22.820Z,100382.16
2019-03-18T19:07:51.847Z,100382.23
2019-03-18T19:10:21.711Z,100378.27
2019-03-18T19:12:50.758Z,100388.98
2019-03-18T19:15:27.249Z,100386.77
2019-03-18T19:17:56.272Z,100390.42
2019-03-18T19:20:25.303Z,100395.84
2019-03-18T19:22:58.046Z,100405.22
2019-03-18T19:25:27.096Z,100403.09
2019-03-18T19:27:56.120Z,100404.97
2019-03-18T19:30:27.206Z,100405.53
2019-03-18T19:32:56.160Z,100409.92
2019-03-18T19:35:25.183Z,100406.37
2019-03-18T19:37:54.209Z,100403.78
2019-03-18T19:40:25.500Z,100408.27
2019-03-18T19:42:54.565Z,100418.11
2019-03-18T19:45:23.589Z,100419.91
2019-03-18T19:47:53.451Z,100414.66
2019-03-18T19:50:29.167Z,100417.39
2019-03-18T19:52:58.207Z,100422.75
2019-03-18T19:55:27.235Z,100415.74
2019-03-18T19:57:56.263Z,100420.34
2019-03-18T20:00:30.163Z,100416.89
2019-03-18T20:03:02.498Z,100424.98
2019-03-18T20:05:30.111Z,100418.85
2019-03-18T20:07:59.140Z,100420.66
2019-03-18T20:10:28.203Z,100423.39
2019-03-18T20:12:57.680Z,100418.20
2019-03-18T20:15:26.704Z,100430.25
2019-03-18T20:17:55.731Z,100428.62
2019-03-18T20:20:25.115Z,100438.92
2019-03-18T20:22:54.146Z,100446.33
2019-03-18T20:25:23.158Z,100445.05
2019-03-18T20:27:52.775Z,100445.51
2019-03-18T20:30:22.907Z,100450.08
2019-03-18T20:32:51.930Z,100454.09
2019-03-18T20:35:25.212Z,100451.94
2019-03-18T20:37:54.227Z,100450.35
2019-03-18T20:40:23.261Z,100463.73
2019-03-18T20:42:52.285Z,100457.09
2019-03-18T20:45:24.199Z,100459.72
2019-03-18T20:47:53.222Z,100459.77
2019-03-18T20:50:25.659Z,100451.38
2019-03-18T20:52:54.686Z,100452.25
2019-03-18T20:55:23.711Z,100448.29
2019-03-18T20:57:52.737Z,100450.09
2019-03-18T21:00:24.137Z,100452.36
2019-03-18T21:02:53.176Z,100463.63
2019-03-18T21:05:24.822Z,100461.88
2019-03-18T21:07:52.955Z,100465.11
2019-03-18T21:10:22.330Z,100458.01
2019-03-18T21:12:51.364Z,100459.81
2019-03-18T21:15:20.388Z,100455.86
2019-03-18T21:17:49.417Z,100468.77
2019-03-18T21:20:26.042Z,100472.38
2019-03-18T21:22:55.062Z,100468.36
2019-03-18T21:25:24.091Z,100472.47
2019-03-18T21:27:55.206Z,100474.33
2019-03-18T21:30:24.514Z,100481.98
2019-03-18T21:32:53.603Z,100483.42
2019-03-18T21:35:22.667Z,100487.06
2019-03-18T21:37:51.684Z,100485.73
2019-03-18T21:40:21.458Z,100485.73
2019-03-18T21:42:50.478Z,100486.10
2019-03-18T21:45:24.588Z,100486.51
2019-03-18T21:47:53.616Z,100487.84
2019-03-18T21:50:22.637Z,100490.11
2019-03-18T21:52:51.664Z,100489.33
2019-03-18T21:55:20.758Z,100493.48
2019-03-18T21:57:49.811Z,100495.41
2019-03-18T22:00:23.104Z,100494.61
2019-03-18T22:02:52.120Z,100492.46
2019-03-18T22:05:21.156Z,100501.45
2019-03-18T22:07:50.181Z,100500.58
2019-03-18T22:10:20.746Z,100505.92
2019-03-18T22:12:49.778Z,100501.97
2019-03-18T22:15:18.875Z,100507.41
2019-03-18T22:17:47.899Z,100502.58
2019-03-18T22:20:20.870Z,100499.11
2019-03-18T22:22:49.131Z,100500.50
2019-03-18T22:25:18.191Z,100506.38
2019-03-18T22:27:47.170Z,100502.91
2019-03-18T22:30:18.670Z,100507.85
2019-03-18T22:32:48.126Z,100503.43
2019-03-18T22:35:17.180Z,100504.85
2019-03-18T22:37:46.198Z,100507.12
2019-03-18T22:40:17.791Z,100504.13
2019-03-18T22:42:46.818Z,100512.60
2019-03-18T22:45:17.077Z,100503.30
2019-03-18T22:47:46.079Z,100508.33
2019-03-18T22:50:16.617Z,100504.83
2019-03-18T22:52:45.626Z,100514.19
2019-03-18T22:55:15.479Z,100513.81
2019-03-18T22:57:44.563Z,100508.05
2019-03-18T23:00:22.685Z,100511.24
2019-03-18T23:02:51.782Z,100507.78
2019-03-18T23:05:20.807Z,100515.85
2019-03-18T23:07:49.836Z,100520.47
2019-03-18T23:10:18.932Z,100518.67
2019-03-18T23:12:47.991Z,100511.98
2019-03-18T23:15:17.012Z,100520.88
2019-03-18T23:17:46.028Z,100520.47
2019-03-18T23:20:15.053Z,100519.13
2019-03-18T23:22:44.081Z,100521.39
2019-03-18T23:25:13.143Z,100522.35
2019-03-18T23:27:42.169Z,100526.36
2019-03-18T23:30:30.405Z,100525.86
2019-03-18T23:32:56.833Z,100526.73
2019-03-18T23:35:25.859Z,100522.81
2019-03-18T23:37:54.889Z,100526.36
2019-03-18T23:40:23.924Z,100520.60
2019-03-18T23:42:52.953Z,100526.36
2019-03-18T23:45:21.980Z,100533.50
2019-03-18T23:47:51.304Z,100532.69
2019-03-18T23:50:20.330Z,100530.09
2019-03-18T23:52:49.355Z,100538.48
2019-03-18T23:55:20.006Z,100535.81
2019-03-18T23:57:49.287Z,100537.70
